createdAt,value
2022-11-29T00:00:03.046Z,7.70
2022-11-29T00:02:33.359Z,7.70
2022-11-29T00:05:02.734Z,7.70
2022-11-29T00:07:31.844Z,7.80
2022-11-29T00:10:00.551Z,7.70
2022-11-29T00:12:29.251Z,7.60
2022-11-29T00:14:59.662Z,7.80
2022-11-29T00:17:31.561Z,7.70
2022-11-29T00:20:01.912Z,7.80
2022-11-29T00:22:31.822Z,7.80
2022-11-29T00:25:07.237Z,7.80
2022-11-29T00:27:36.252Z,7.70
2022-11-29T00:30:11.623Z,7.80
2022-11-29T00:32:41.240Z,7.60
2022-11-29T00:35:12.682Z,7.60
2022-11-29T00:37:44.577Z,7.50
2022-11-29T00:40:17.101Z,7.70
2022-11-29T00:42:46.938Z,7.70
2022-11-29T00:45:17.447Z,7.60
2022-11-29T00:47:46.083Z,7.70
2022-11-29T00:50:15.143Z,7.60
2022-11-29T00:52:46.873Z,7.70
2022-11-29T00:55:16.746Z,7.70
2022-11-29T00:57:45.878Z,7.70
2022-11-29T01:00:21.113Z,7.70
2022-11-29T01:02:49.606Z,7.70
2022-11-29T01:05:20.076Z,7.70
2022-11-29T01:07:51.250Z,7.60
2022-11-29T01:10:20.326Z,7.80
2022-11-29T01:12:48.827Z,7.70
2022-11-29T01:15:19.117Z,7.70
2022-11-29T01:17:49.584Z,7.80
2022-11-29T01:20:23.164Z,7.80
2022-11-29T01:22:56.962Z,7.70
2022-11-29T01:25:26.133Z,7.70
2022-11-29T01:27:59.499Z,7.70
2022-11-29T01:30:30.023Z,7.80
2022-11-29T01:33:06.354Z,7.80
2022-11-29T01:35:35.455Z,7.60
2022-11-29T01:38:04.691Z,7.80
2022-11-29T01:40:37.823Z,7.70
2022-11-29T01:43:14.659Z,7.80
2022-11-29T01:45:48.629Z,7.80
2022-11-29T01:48:19.044Z,7.70
2022-11-29T01:50:47.963Z,7.80
2022-11-29T01:53:17.781Z,7.80
2022-11-29T01:55:52.132Z,7.80
2022-11-29T01:58:22.944Z,7.70
2022-11-29T02:00:53.015Z,7.60
2022-11-29T02:03:25.304Z,7.80
2022-11-29T02:05:55.155Z,7.80
2022-11-29T02:08:33.839Z,7.80
2022-11-29T02:11:28.364Z,7.90
2022-11-29T02:14:06.497Z,7.80
2022-11-29T02:16:52.227Z,7.80
2022-11-29T02:19:48.531Z,7.90
2022-11-29T02:22:22.344Z,7.80
2022-11-29T02:25:04.061Z,7.60
2022-11-29T02:28:16.065Z,7.80
2022-11-29T02:30:59.891Z,7.70
2022-11-29T02:33:57.296Z,7.80
2022-11-29T02:36:51.592Z,7.80
2022-11-29T02:39:48.847Z,7.70
2022-11-29T02:42:55.762Z,7.80
2022-11-29T02:45:51.545Z,7.70
2022-11-29T02:48:40.369Z,7.60
2022-11-29T02:51:15.522Z,7.80
2022-11-29T02:53:52.218Z,7.70
2022-11-29T02:56:28.578Z,7.70
2022-11-29T02:59:05.638Z,7.70
2022-11-29T03:01:41.300Z,7.60
2022-11-29T03:04:21.624Z,7.70
2022-11-29T03:07:03.647Z,7.50
2022-11-29T03:09:40.675Z,7.60
2022-11-29T03:12:19.726Z,7.60
2022-11-29T03:14:58.705Z,7.60
2022-11-29T03:17:38.163Z,7.60
2022-11-29T03:20:24.851Z,7.60
2022-11-29T03:23:09.801Z,7.70
2022-11-29T03:25:43.110Z,7.70
2022-11-29T03:28:16.207Z,7.60
2022-11-29T03:30:52.244Z,7.70
2022-11-29T03:33:28.648Z,7.50
2022-11-29T03:36:04.096Z,7.60
2022-11-29T03:38:39.762Z,7.50
2022-11-29T03:41:19.034Z,7.50
2022-11-29T03:43:54.204Z,7.70
2022-11-29T03:46:29.465Z,7.50
2022-11-29T03:49:03.495Z,7.60
2022-11-29T03:51:44.197Z,7.70
2022-11-29T03:54:17.491Z,7.60
2022-11-29T03:56:46.551Z,7.60
2022-11-29T03:59:35.714Z,7.70
2022-11-29T04:02:25.412Z,7.70
2022-11-29T04:05:29.065Z,7.70
2022-11-29T04:08:37.193Z,7.80
2022-11-29T04:11:31.598Z,7.40
2022-11-29T04:14:28.926Z,7.60
2022-11-29T04:17:30.486Z,7.70
2022-11-29T04:20:18.882Z,7.60
2022-11-29T04:23:23.422Z,7.50
2022-11-29T04:26:35.437Z,7.70
2022-11-29T04:29:20.771Z,7.70
2022-11-29T04:32:14.584Z,7.60
2022-11-29T04:35:09.074Z,7.50
2022-11-29T04:38:17.556Z,7.50
2022-11-29T04:41:08.998Z,7.70
2022-11-29T04:44:08.975Z,7.70
2022-11-29T04:46:50.252Z,7.70
2022-11-29T04:49:52.840Z,7.60
2022-11-29T04:52:57.909Z,7.60
2022-11-29T04:55:39.808Z,7.60
2022-11-29T04:58:16.497Z,7.70
2022-11-29T05:00:53.035Z,7.70
2022-11-29T05:03:32.282Z,7.90
2022-11-29T05:06:09.339Z,7.60
2022-11-29T05:08:51.375Z,7.70
2022-11-29T05:11:28.039Z,7.80
2022-11-29T05:14:03.777Z,7.70
2022-11-29T05:16:47.397Z,7.70
2022-11-29T05:19:46.967Z,7.90
2022-11-29T05:22:29.298Z,7.70
2022-11-29T05:25:12.141Z,7.90
2022-11-29T05:27:46.922Z,7.80
2022-11-29T05:30:17.507Z,7.90
2022-11-29T05:32:57.562Z,7.80
2022-11-29T05:35:48.241Z,8.00
2022-11-29T05:38:45.090Z,7.80
2022-11-29T05:41:41.465Z,8.00
2022-11-29T05:44:13.964Z,7.90
2022-11-29T05:46:51.846Z,7.60
2022-11-29T05:49:31.952Z,8.00
2022-11-29T05:52:16.131Z,7.80
2022-11-29T05:54:52.305Z,7.90
2022-11-29T05:57:34.671Z,8.00
2022-11-29T06:00:05.951Z,7.80
2022-11-29T06:02:46.796Z,7.90
2022-11-29T06:05:25.752Z,8.00
2022-11-29T06:08:00.848Z,8.00
2022-11-29T06:10:33.085Z,8.00
2022-11-29T06:13:30.699Z,8.00
2022-11-29T06:16:32.975Z,7.90
2022-11-29T06:19:35.103Z,7.80
2022-11-29T06:22:17.833Z,8.00
2022-11-29T06:25:03.434Z,8.10
2022-11-29T06:27:49.099Z,7.80
2022-11-29T06:30:21.588Z,7.90
2022-11-29T06:32:55.960Z,7.90
2022-11-29T06:35:36.778Z,8.00
2022-11-29T06:38:15.529Z,8.00
2022-11-29T06:40:44.702Z,7.90
2022-11-29T06:43:14.004Z,8.00
2022-11-29T06:45:48.904Z,8.00
2022-11-29T06:48:22.361Z,8.00
2022-11-29T06:50:58.954Z,8.00
2022-11-29T06:53:37.554Z,8.00
2022-11-29T06:56:13.915Z,7.80
2022-11-29T06:58:52.356Z,8.10
2022-11-29T07:01:29.073Z,8.10
2022-11-29T07:04:12.858Z,7.90
2022-11-29T07:06:41.709Z,7.90
2022-11-29T07:09:15.735Z,8.00
2022-11-29T07:11:44.993Z,7.90
2022-11-29T07:14:14.811Z,8.00
2022-11-29T07:16:57.014Z,8.00
2022-11-29T07:19:39.311Z,8.00
2022-11-29T07:22:26.158Z,7.90
2022-11-29T07:25:01.670Z,8.00
2022-11-29T07:27:39.155Z,8.00
2022-11-29T07:30:15.638Z,8.10
2022-11-29T07:33:00.289Z,8.00
2022-11-29T07:35:37.916Z,8.00
2022-11-29T07:38:13.902Z,7.80
2022-11-29T07:40:51.239Z,7.90
2022-11-29T07:43:27.881Z,8.10
2022-11-29T07:45:57.336Z,8.00
2022-11-29T07:48:26.886Z,8.00
2022-11-29T07:50:56.211Z,8.00
2022-11-29T07:53:25.273Z,8.10
2022-11-29T07:55:55.346Z,8.00
2022-11-29T07:58:23.714Z,7.90
2022-11-29T08:00:52.466Z,8.10
2022-11-29T08:03:20.974Z,8.10
2022-11-29T08:05:49.866Z,8.10
2022-11-29T08:08:20.676Z,8.10
2022-11-29T08:10:49.951Z,8.00
2022-11-29T08:13:21.866Z,8.10
2022-11-29T08:15:50.325Z,8.20
2022-11-29T08:18:19.076Z,8.10
2022-11-29T08:20:47.502Z,8.10
2022-11-29T08:23:16.332Z,8.10
2022-11-29T08:25:45.845Z,8.30
2022-11-29T08:28:14.475Z,8.10
2022-11-29T08:30:44.192Z,8.20
2022-11-29T08:33:13.145Z,8.30
2022-11-29T08:35:42.391Z,8.30
2022-11-29T08:38:10.766Z,8.30
2022-11-29T08:40:39.584Z,8.30
2022-11-29T08:43:08.094Z,8.30
2022-11-29T08:45:36.753Z,8.30
2022-11-29T08:48:07.856Z,8.40
2022-11-29T08:50:36.182Z,8.30
2022-11-29T08:53:22.552Z,8.40
2022-11-29T08:55:50.800Z,8.50
2022-11-29T08:58:21.556Z,8.20
2022-11-29T09:00:49.927Z,8.50
2022-11-29T09:03:37.717Z,8.50
2022-11-29T09:06:11.926Z,8.40
2022-11-29T09:08:41.102Z,8.50
2022-11-29T09:11:13.151Z,8.50
2022-11-29T09:13:42.831Z,8.50
2022-11-29T09:16:13.384Z,8.50
2022-11-29T09:18:48.508Z,8.60
2022-11-29T09:21:19.860Z,8.50
2022-11-29T09:23:48.619Z,8.70
2022-11-29T09:26:18.670Z,8.70
2022-11-29T09:28:47.522Z,8.70
2022-11-29T09:31:17.213Z,8.70
2022-11-29T09:33:47.047Z,8.80
2022-11-29T09:36:15.560Z,8.80
2022-11-29T09:38:44.073Z,8.80
2022-11-29T09:41:38.131Z,8.80
2022-11-29T09:44:14.335Z,8.90
2022-11-29T09:46:55.757Z,8.80
2022-11-29T09:49:45.967Z,8.80
2022-11-29T09:52:22.256Z,8.90
2022-11-29T09:54:58.292Z,9.00
2022-11-29T09:57:29.342Z,8.90
2022-11-29T10:00:02.818Z,9.00
2022-11-29T10:02:38.932Z,9.00
2022-11-29T10:05:13.879Z,9.00
2022-11-29T10:07:47.389Z,9.10
2022-11-29T10:10:21.586Z,9.10
2022-11-29T10:12:53.297Z,9.00
2022-11-29T10:15:24.924Z,9.00
2022-11-29T10:17:57.841Z,9.20
2022-11-29T10:20:36.421Z,9.10
2022-11-29T10:23:19.754Z,9.20
2022-11-29T10:25:50.828Z,9.30
2022-11-29T10:28:22.977Z,9.30
2022-11-29T10:30:54.233Z,9.20
2022-11-29T10:33:26.395Z,9.20
2022-11-29T10:35:59.060Z,9.40
2022-11-29T10:38:31.665Z,9.40
2022-11-29T10:41:08.725Z,9.40
2022-11-29T10:43:37.803Z,9.40
2022-11-29T10:46:11.418Z,9.40
2022-11-29T10:48:40.240Z,9.40
2022-11-29T10:51:18.051Z,9.40
2022-11-29T10:53:46.896Z,9.50
2022-11-29T10:56:24.227Z,9.50
2022-11-29T10:58:58.547Z,9.50
2022-11-29T11:01:29.092Z,9.60
2022-11-29T11:04:00.136Z,9.60
2022-11-29T11:06:45.020Z,9.60
2022-11-29T11:09:20.025Z,9.70
2022-11-29T11:11:52.886Z,9.70
2022-11-29T11:14:24.272Z,9.70
2022-11-29T11:16:54.113Z,9.70
2022-11-29T11:19:28.777Z,9.80
2022-11-29T11:22:00.143Z,9.80
2022-11-29T11:24:30.993Z,9.80
2022-11-29T11:27:00.668Z,9.80
2022-11-29T11:29:36.788Z,9.90
2022-11-29T11:32:08.541Z,9.80
2022-11-29T11:34:38.564Z,9.80
2022-11-29T11:37:24.034Z,9.70
2022-11-29T11:39:55.800Z,9.80
2022-11-29T11:42:40.511Z,9.80
2022-11-29T11:45:28.240Z,9.80
2022-11-29T11:47:59.822Z,9.80
2022-11-29T11:50:32.180Z,9.80
2022-11-29T11:53:06.756Z,9.80
2022-11-29T11:55:38.924Z,9.80
2022-11-29T11:58:17.793Z,9.80
2022-11-29T12:01:03.828Z,9.70
2022-11-29T12:03:49.238Z,9.80
2022-11-29T12:06:40.815Z,9.70
2022-11-29T12:09:19.524Z,9.70
2022-11-29T12:11:54.217Z,9.70
2022-11-29T12:14:32.274Z,9.70
2022-11-29T12:17:09.448Z,9.70
2022-11-29T12:19:44.465Z,9.70
2022-11-29T12:22:19.822Z,9.70
2022-11-29T12:24:56.961Z,9.60
2022-11-29T12:27:25.420Z,9.60
2022-11-29T12:29:53.892Z,9.70
2022-11-29T12:32:49.567Z,9.60
2022-11-29T12:35:42.520Z,9.60
2022-11-29T12:38:34.386Z,9.70
2022-11-29T12:41:12.931Z,9.70
2022-11-29T12:43:52.241Z,9.60
2022-11-29T12:46:26.179Z,9.70
2022-11-29T12:49:01.712Z,9.70
2022-11-29T12:51:39.890Z,9.70
2022-11-29T12:54:39.085Z,9.70
2022-11-29T12:57:15.490Z,9.70
2022-11-29T13:00:08.678Z,9.60
2022-11-29T13:02:59.429Z,9.70
2022-11-29T13:05:42.541Z,9.70
2022-11-29T13:08:36.616Z,9.70
2022-11-29T13:11:17.503Z,9.80
2022-11-29T13:13:52.518Z,9.70
2022-11-29T13:16:38.375Z,9.70
2022-11-29T13:19:13.907Z,9.70
2022-11-29T13:21:50.367Z,9.60
2022-11-29T13:24:27.138Z,9.70
2022-11-29T13:26:57.851Z,9.70
2022-11-29T13:29:27.815Z,9.70
2022-11-29T13:31:56.721Z,9.70
2022-11-29T13:34:31.359Z,9.60
2022-11-29T13:37:08.592Z,9.60
2022-11-29T13:39:51.843Z,9.60
2022-11-29T13:42:30.860Z,9.70
2022-11-29T13:45:07.905Z,9.70
2022-11-29T13:47:50.470Z,9.60
2022-11-29T13:50:40.037Z,9.60
2022-11-29T13:53:15.919Z,9.60
2022-11-29T13:55:49.346Z,9.60
2022-11-29T13:58:35.165Z,9.60
2022-11-29T14:01:09.724Z,9.70
2022-11-29T14:03:40.331Z,9.60
2022-11-29T14:06:14.770Z,9.50
2022-11-29T14:09:18.925Z,9.60
2022-11-29T14:11:52.665Z,9.60
2022-11-29T14:14:27.206Z,9.60
2022-11-29T14:17:03.473Z,9.60
2022-11-29T14:19:34.393Z,9.40
2022-11-29T14:22:33.087Z,9.60
2022-11-29T14:28:31.603Z,9.60
2022-11-29T14:31:01.583Z,9.40
2022-11-29T14:33:54.014Z,9.50
2022-11-29T14:36:38.877Z,9.50
2022-11-29T14:39:31.991Z,9.50
2022-11-29T14:42:14.623Z,9.50
2022-11-29T14:44:49.310Z,9.60
2022-11-29T14:47:25.688Z,9.40
2022-11-29T14:49:57.919Z,9.40
2022-11-29T14:52:30.392Z,9.40
2022-11-29T14:55:03.777Z,9.40
2022-11-29T14:57:55.702Z,9.40
2022-11-29T15:00:25.962Z,9.40
2022-11-29T15:02:58.284Z,9.30
2022-11-29T15:05:33.745Z,9.30
2022-11-29T15:08:10.193Z,9.40
2022-11-29T15:10:43.270Z,9.30
2022-11-29T15:13:24.235Z,9.30
2022-11-29T15:16:18.397Z,9.30
2022-11-29T15:19:18.739Z,9.30
2022-11-29T15:21:57.266Z,9.40
2022-11-29T15:24:28.750Z,9.30
2022-11-29T15:26:59.151Z,9.40
2022-11-29T15:29:28.806Z,9.30
2022-11-29T15:32:00.678Z,9.30
2022-11-29T15:34:33.012Z,9.30
2022-11-29T15:37:03.087Z,9.40
2022-11-29T15:39:33.966Z,9.40
2022-11-29T15:42:05.716Z,9.30
2022-11-29T15:44:40.540Z,9.30
2022-11-29T15:47:22.670Z,9.30
2022-11-29T15:49:51.379Z,9.30
2022-11-29T15:52:29.795Z,9.30
2022-11-29T15:55:01.820Z,9.30
2022-11-29T15:57:36.213Z,9.20
2022-11-29T16:00:07.704Z,9.20
2022-11-29T16:02:40.270Z,9.20
2022-11-29T16:05:16.548Z,9.20
2022-11-29T16:07:48.303Z,9.10
2022-11-29T16:10:20.540Z,9.30
2022-11-29T16:12:54.740Z,9.20
2022-11-29T16:15:29.989Z,9.20
2022-11-29T16:18:04.567Z,9.10
2022-11-29T16:20:33.508Z,9.10
2022-11-29T16:23:12.623Z,9.30
2022-11-29T16:25:54.909Z,9.30
2022-11-29T16:28:24.623Z,9.20
2022-11-29T16:30:53.750Z,9.20
2022-11-29T16:33:25.370Z,9.10
2022-11-29T16:36:05.268Z,9.10
2022-11-29T16:38:35.627Z,9.30
2022-11-29T16:41:06.900Z,9.30
2022-11-29T16:43:54.032Z,9.20
2022-11-29T16:46:40.770Z,9.20
2022-11-29T16:49:31.788Z,9.20
2022-11-29T16:52:00.940Z,9.30
2022-11-29T16:54:34.082Z,9.20
2022-11-29T16:57:06.228Z,9.10
2022-11-29T16:59:35.282Z,9.10
2022-11-29T17:02:03.992Z,9.10
2022-11-29T17:04:33.304Z,9.20
2022-11-29T17:07:02.017Z,9.20
2022-11-29T17:09:34.496Z,9.10
2022-11-29T17:12:04.035Z,9.20
2022-11-29T17:14:33.346Z,9.20
2022-11-29T17:17:01.944Z,9.10
2022-11-29T17:19:30.913Z,9.10
2022-11-29T17:21:59.448Z,9.10
2022-11-29T17:24:27.838Z,9.10
2022-11-29T17:26:57.820Z,9.20
2022-11-29T17:29:26.292Z,9.20
2022-11-29T17:31:55.369Z,9.20
2022-11-29T17:34:24.491Z,9.20
2022-11-29T17:36:53.271Z,9.10
2022-11-29T17:39:23.093Z,9.20
2022-11-29T17:41:52.436Z,9.20
2022-11-29T17:44:24.148Z,9.10
2022-11-29T17:46:53.342Z,9.20
2022-11-29T17:49:21.776Z,9.20
2022-11-29T17:51:53.122Z,9.20
2022-11-29T17:54:22.554Z,9.10
2022-11-29T17:56:54.380Z,9.10
2022-11-29T17:59:24.038Z,9.20
2022-11-29T18:01:52.581Z,9.10
2022-11-29T18:04:21.223Z,9.20
2022-11-29T18:06:50.654Z,9.10
2022-11-29T18:09:21.249Z,9.10
2022-11-29T18:11:50.858Z,9.10
2022-11-29T18:14:22.492Z,9.20
2022-11-29T18:16:53.134Z,9.10
2022-11-29T18:19:23.983Z,9.10
2022-11-29T18:21:53.242Z,9.10
2022-11-29T18:24:23.452Z,9.10
2022-11-29T18:26:52.506Z,9.00
2022-11-29T18:29:24.111Z,9.10
2022-11-29T18:31:54.088Z,9.10
2022-11-29T18:34:22.458Z,9.10
2022-11-29T18:36:51.019Z,9.00
2022-11-29T18:39:20.810Z,9.10
2022-11-29T18:41:53.121Z,9.00
2022-11-29T18:44:24.354Z,9.20
2022-11-29T18:46:54.080Z,9.20
2022-11-29T18:49:23.051Z,9.10
2022-11-29T18:51:51.905Z,9.10
2022-11-29T18:54:21.035Z,9.20
2022-11-29T18:56:51.478Z,9.10
2022-11-29T18:59:22.219Z,9.20
2022-11-29T19:01:52.359Z,9.10
2022-11-29T19:04:22.634Z,9.10
2022-11-29T19:06:51.150Z,9.10
2022-11-29T19:09:22.147Z,9.20
2022-11-29T19:11:51.109Z,9.10
2022-11-29T19:14:21.080Z,9.10
2022-11-29T19:16:51.553Z,9.10
2022-11-29T19:19:20.043Z,9.10
2022-11-29T19:21:50.032Z,9.00
2022-11-29T19:24:19.318Z,9.10
2022-11-29T19:26:49.091Z,9.10
2022-11-29T19:29:18.543Z,9.20
2022-11-29T19:31:47.264Z,9.10
2022-11-29T19:34:16.029Z,9.10
2022-11-29T19:36:45.442Z,9.10
2022-11-29T19:39:16.941Z,9.10
2022-11-29T19:41:47.145Z,9.00
2022-11-29T19:44:16.083Z,9.00
2022-11-29T19:46:48.168Z,9.10
2022-11-29T19:49:16.855Z,9.00
2022-11-29T19:51:45.178Z,9.10
2022-11-29T19:54:14.932Z,9.00
2022-11-29T19:56:44.828Z,9.00
2022-11-29T19:59:13.358Z,9.00
2022-11-29T20:01:43.103Z,9.00
2022-11-29T20:04:13.436Z,9.00
2022-11-29T20:06:44.522Z,8.90
2022-11-29T20:09:15.036Z,8.90
2022-11-29T20:11:45.226Z,8.90
2022-11-29T20:17:03.907Z,9.00
2022-11-29T20:19:32.309Z,9.00
2022-11-29T20:22:01.909Z,8.90
2022-11-29T20:24:39.085Z,8.90
2022-11-29T20:27:10.897Z,8.90
2022-11-29T20:29:39.679Z,8.90
2022-11-29T20:32:08.336Z,8.90
2022-11-29T20:34:38.641Z,9.00
2022-11-29T20:37:43.527Z,8.90
2022-11-29T20:40:20.543Z,9.00
2022-11-29T20:43:12.849Z,8.80
2022-11-29T20:45:42.476Z,8.90
2022-11-29T20:48:16.997Z,8.90
2022-11-29T20:50:53.977Z,8.90
2022-11-29T20:53:33.535Z,8.90
2022-11-29T20:56:03.797Z,8.90
2022-11-29T20:58:32.149Z,8.90
2022-11-29T21:01:01.027Z,8.70
2022-11-29T21:03:30.384Z,9.00
2022-11-29T21:06:02.801Z,8.90
2022-11-29T21:08:31.667Z,8.90
2022-11-29T21:11:05.759Z,9.00
2022-11-29T21:13:34.979Z,8.90
2022-11-29T21:16:04.696Z,8.90
2022-11-29T21:18:33.843Z,8.80
2022-11-29T21:21:15.554Z,8.90
2022-11-29T21:23:52.952Z,9.00
2022-11-29T21:26:28.810Z,8.90
2022-11-29T21:29:07.031Z,8.80
2022-11-29T21:31:36.001Z,8.90
2022-11-29T21:34:05.210Z,9.00
2022-11-29T21:36:33.463Z,8.90
2022-11-29T21:39:05.167Z,8.90
2022-11-29T21:41:35.267Z,8.90
2022-11-29T21:44:07.416Z,8.90
2022-11-29T21:46:37.220Z,8.80
2022-11-29T21:49:06.892Z,8.90
2022-11-29T21:51:35.302Z,8.90
2022-11-29T21:54:03.718Z,8.90
2022-11-29T21:56:33.046Z,8.90
2022-11-29T21:59:02.756Z,8.90
2022-11-29T22:01:33.847Z,9.00
2022-11-29T22:04:04.128Z,8.90
2022-11-29T22:06:32.805Z,8.90
2022-11-29T22:09:01.455Z,8.90
2022-11-29T22:11:34.208Z,8.90
2022-11-29T22:14:15.978Z,9.00
2022-11-29T22:16:46.274Z,9.00
2022-11-29T22:19:16.784Z,8.90
2022-11-29T22:21:46.467Z,8.90
2022-11-29T22:24:26.437Z,8.90
2022-11-29T22:26:55.688Z,8.90
2022-11-29T22:29:25.995Z,8.80
2022-11-29T22:31:55.876Z,8.90
2022-11-29T22:34:26.780Z,9.00
2022-11-29T22:36:55.298Z,8.90
2022-11-29T22:39:24.159Z,9.00
2022-11-29T22:41:55.076Z,9.00
2022-11-29T22:44:25.398Z,8.90
2022-11-29T22:46:53.781Z,8.90
2022-11-29T22:49:22.239Z,8.90
2022-11-29T22:51:50.564Z,8.90
2022-11-29T22:54:20.246Z,9.00
2022-11-29T22:56:48.642Z,8.90
2022-11-29T22:59:16.993Z,8.90
2022-11-29T23:01:46.998Z,9.00
2022-11-29T23:04:15.719Z,8.90
2022-11-29T23:06:45.939Z,9.00
2022-11-29T23:09:16.957Z,9.00
2022-11-29T23:11:50.858Z,9.00
2022-11-29T23:14:20.107Z,8.90
2022-11-29T23:16:52.870Z,9.00
2022-11-29T23:19:21.949Z,8.80
2022-11-29T23:21:53.483Z,8.90
2022-11-29T23:24:22.053Z,8.80
2022-11-29T23:26:50.472Z,8.80
2022-11-29T23:29:20.676Z,9.00
2022-11-29T23:31:51.488Z,8.90
2022-11-29T23:34:19.966Z,8.90
2022-11-29T23:36:52.959Z,8.70
2022-11-29T23:39:22.129Z,8.70
2022-11-29T23:41:50.600Z,8.80
2022-11-29T23:44:19.311Z,8.80
2022-11-29T23:46:47.597Z,8.70
2022-11-29T23:49:17.413Z,8.80
2022-11-29T23:51:45.893Z,8.80
2022-11-29T23:54:14.494Z,8.80
2022-11-29T23:56:42.730Z,8.80
2022-11-29T23:59:11.443Z,8.80
